createdAt,value
2019-02-15T00:02:10.563Z,99.90
2019-02-15T00:04:48.063Z,99.90
2019-02-15T00:07:25.582Z,99.90
2019-02-15T00:10:03.072Z,99.90
2019-02-15T00:12:43.910Z,99.90
2019-02-15T00:15:21.414Z,99.90
2019-02-15T00:18:20.731Z,99.90
2019-02-15T00:21:02.785Z,99.90
2019-02-15T00:23:46.747Z,99.90
2019-02-15T00:26:24.235Z,99.90
2019-02-15T00:29:01.780Z,99.90
2019-02-15T00:31:39.280Z,99.90
2019-02-15T00:34:16.903Z,99.90
2019-02-15T00:36:54.405Z,99.90
2019-02-15T00:39:31.947Z,99.90
2019-02-15T00:42:09.612Z,99.90
2019-02-15T00:44:47.134Z,99.90
2019-02-15T00:47:33.351Z,99.90
2019-02-15T00:50:26.216Z,99.90
2019-02-15T00:53:29.177Z,99.90
2019-02-15T00:56:25.310Z,99.90
2019-02-15T00:59:17.564Z,99.90
2019-02-15T01:02:13.795Z,99.90
2019-02-15T01:05:26.248Z,99.90
2019-02-15T01:08:22.448Z,99.90
2019-02-15T01:11:21.952Z,99.90
2019-02-15T01:14:08.525Z,99.90
2019-02-15T01:16:46.023Z,99.90
2019-02-15T01:19:23.556Z,99.90
2019-02-15T01:22:07.563Z,99.90
2019-02-15T01:24:45.080Z,99.90
2019-02-15T01:27:30.528Z,99.90
2019-02-15T01:30:29.916Z,99.90
2019-02-15T01:33:37.542Z,99.90
2019-02-15T01:36:21.551Z,99.90
2019-02-15T01:39:09.122Z,99.90
2019-02-15T01:42:20.466Z,99.90
2019-02-15T01:45:02.715Z,99.90
2019-02-15T01:47:43.980Z,99.90
2019-02-15T01:50:21.489Z,99.90
2019-02-15T01:53:02.573Z,99.90
2019-02-15T01:55:40.078Z,99.90
2019-02-15T01:58:17.604Z,99.90
2019-02-15T02:00:55.111Z,99.90
2019-02-15T02:03:32.762Z,99.90
2019-02-15T02:06:10.258Z,99.90
2019-02-15T02:08:47.805Z,99.90
2019-02-15T02:11:25.302Z,99.90
2019-02-15T02:14:03.698Z,99.90
2019-02-15T02:16:41.211Z,99.90
2019-02-15T02:19:18.719Z,99.90
2019-02-15T02:21:59.563Z,99.90
2019-02-15T02:24:37.062Z,99.90
2019-02-15T02:27:14.567Z,99.90
2019-02-15T02:29:52.091Z,99.90
2019-02-15T02:32:30.663Z,99.90
2019-02-15T02:35:08.833Z,99.90
2019-02-15T02:37:46.347Z,99.90
2019-02-15T02:40:23.907Z,99.90
2019-02-15T02:43:01.569Z,99.90
2019-02-15T02:45:39.089Z,99.90
2019-02-15T02:48:16.597Z,99.90
2019-02-15T02:50:54.073Z,99.90
2019-02-15T02:53:34.808Z,99.90
2019-02-15T02:56:12.300Z,99.90
2019-02-15T02:58:49.856Z,99.90
2019-02-15T03:01:27.469Z,99.90
2019-02-15T03:04:04.987Z,99.90
2019-02-15T03:06:42.486Z,99.90
2019-02-15T03:09:19.991Z,99.90
2019-02-15T03:12:00.804Z,99.90
2019-02-15T03:14:38.330Z,99.90
2019-02-15T03:17:15.827Z,99.90
2019-02-15T03:19:53.369Z,99.90
2019-02-15T03:22:30.963Z,99.90
2019-02-15T03:25:08.505Z,99.90
2019-02-15T03:27:46.007Z,99.90
2019-02-15T03:30:23.665Z,99.90
2019-02-15T03:33:01.152Z,99.90
2019-02-15T03:35:38.677Z,99.90
2019-02-15T03:38:25.007Z,99.90
2019-02-15T03:41:04.574Z,99.90
2019-02-15T03:43:42.088Z,99.90
2019-02-15T03:46:19.591Z,99.90
2019-02-15T03:48:57.131Z,99.90
2019-02-15T03:51:54.178Z,99.90
2019-02-15T03:54:31.689Z,99.90
2019-02-15T03:57:09.183Z,99.90
2019-02-15T03:59:46.730Z,99.90
2019-02-15T04:02:27.418Z,99.90
2019-02-15T04:05:04.939Z,99.90
2019-02-15T04:07:42.454Z,99.90
2019-02-15T04:10:19.996Z,99.90
2019-02-15T04:12:57.602Z,99.90
2019-02-15T04:15:35.128Z,99.90
2019-02-15T04:18:12.626Z,99.90
2019-02-15T04:20:50.151Z,99.90
2019-02-15T04:23:27.646Z,99.90
2019-02-15T04:26:05.179Z,99.90
2019-02-15T04:28:42.678Z,99.90
2019-02-15T04:31:29.702Z,99.90
2019-02-15T04:34:13.875Z,99.90
2019-02-15T04:36:51.437Z,99.90
2019-02-15T04:39:29.000Z,99.90
2019-02-15T04:42:06.611Z,99.90
2019-02-15T04:44:44.156Z,99.90
2019-02-15T04:47:21.679Z,99.90
2019-02-15T04:49:59.223Z,99.90
2019-02-15T04:52:43.753Z,99.90
2019-02-15T04:55:21.278Z,99.90
2019-02-15T04:57:58.789Z,99.90
2019-02-15T05:00:36.302Z,99.90
2019-02-15T05:03:13.911Z,99.90
2019-02-15T05:05:51.429Z,99.90
2019-02-15T05:08:28.934Z,99.90
2019-02-15T05:11:22.999Z,99.90
2019-02-15T05:14:00.522Z,99.90
2019-02-15T05:16:38.053Z,99.90
2019-02-15T05:19:15.571Z,99.90
2019-02-15T05:22:21.865Z,99.90
2019-02-15T05:24:59.406Z,99.90
2019-02-15T05:27:36.867Z,99.90
2019-02-15T05:30:14.381Z,99.90
2019-02-15T05:32:51.981Z,99.90
2019-02-15T05:35:29.511Z,99.90
2019-02-15T05:38:07.011Z,99.90
2019-02-15T05:40:50.895Z,99.90
2019-02-15T05:43:28.394Z,99.90
2019-02-15T05:46:05.931Z,99.90
2019-02-15T05:48:43.449Z,99.90
2019-02-15T05:51:31.040Z,99.90
2019-02-15T05:54:08.550Z,99.90
2019-02-15T05:56:46.101Z,99.90
2019-02-15T05:59:23.664Z,99.90
2019-02-15T06:02:18.199Z,99.90
2019-02-15T06:04:58.544Z,99.90
2019-02-15T06:07:33.470Z,99.90
2019-02-15T06:10:11.267Z,99.90
2019-02-15T06:12:48.877Z,99.90
2019-02-15T06:15:37.177Z,99.90
2019-02-15T06:18:14.668Z,99.90
2019-02-15T06:20:52.382Z,99.90
2019-02-15T06:23:29.913Z,99.90
2019-02-15T06:26:07.443Z,99.90
2019-02-15T06:28:44.945Z,99.90
2019-02-15T06:31:22.620Z,99.90
2019-02-15T06:34:00.115Z,99.90
2019-02-15T06:36:38.171Z,99.90
2019-02-15T06:39:15.729Z,99.90
2019-02-15T06:41:53.386Z,99.90
2019-02-15T06:44:31.105Z,99.90
2019-02-15T06:47:08.631Z,99.90
2019-02-15T06:49:46.134Z,99.90
2019-02-15T06:52:43.620Z,99.90
2019-02-15T06:55:21.160Z,99.90
2019-02-15T06:57:58.670Z,99.90
2019-02-15T07:00:52.575Z,99.90
2019-02-15T07:03:57.359Z,99.90
2019-02-15T07:06:34.898Z,99.90
2019-02-15T07:09:12.442Z,99.90
2019-02-15T07:11:50.098Z,99.90
2019-02-15T07:14:27.618Z,99.90
2019-02-15T07:17:06.451Z,99.90
2019-02-15T07:19:43.814Z,99.90
2019-02-15T07:22:20.251Z,99.90
2019-02-15T07:24:57.768Z,99.90
2019-02-15T07:27:35.337Z,99.90
2019-02-15T07:30:15.583Z,99.90
2019-02-15T07:32:51.931Z,99.90
2019-02-15T07:35:29.460Z,99.90
2019-02-15T07:38:06.967Z,99.90
2019-02-15T07:40:48.056Z,99.90
2019-02-15T07:43:25.348Z,99.90
2019-02-15T07:46:02.866Z,99.90
2019-02-15T07:48:40.363Z,99.90
2019-02-15T07:51:18.040Z,99.90
2019-02-15T07:53:55.508Z,99.90
2019-02-15T07:56:33.042Z,99.90
2019-02-15T07:59:10.559Z,99.90
2019-02-15T08:02:01.940Z,99.90
2019-02-15T08:04:35.986Z,99.90
2019-02-15T08:07:22.102Z,99.90
2019-02-15T08:09:59.608Z,99.90
2019-02-15T08:12:37.144Z,99.90
2019-02-15T08:15:14.656Z,99.90
2019-02-15T08:17:52.172Z,99.90
2019-02-15T08:20:35.899Z,99.90
2019-02-15T08:23:13.675Z,99.90
2019-02-15T08:25:51.172Z,99.90
2019-02-15T08:28:28.676Z,99.90
2019-02-15T08:31:09.446Z,99.90
2019-02-15T08:33:46.946Z,99.90
2019-02-15T08:36:24.479Z,99.90
2019-02-15T08:39:01.987Z,99.90
2019-02-15T08:41:39.640Z,99.90
2019-02-15T08:44:17.151Z,99.90
2019-02-15T08:46:54.686Z,99.90
2019-02-15T08:49:32.193Z,99.90
2019-02-15T08:52:13.364Z,99.90
2019-02-15T08:54:50.891Z,99.90
2019-02-15T08:57:28.432Z,99.90
2019-02-15T09:00:10.592Z,99.90
2019-02-15T09:02:48.187Z,99.90
2019-02-15T09:05:25.760Z,99.90
2019-02-15T09:08:03.327Z,99.90
2019-02-15T09:10:44.578Z,99.80
2019-02-15T09:13:22.134Z,99.30
2019-02-15T09:15:59.635Z,98.70
2019-02-15T09:18:37.162Z,98.60
2019-02-15T09:21:14.775Z,97.90
2019-02-15T09:23:52.279Z,97.90
2019-02-15T09:26:29.906Z,97.70
2019-02-15T09:29:10.389Z,97.30
2019-02-15T09:31:48.037Z,96.90
2019-02-15T09:34:25.555Z,96.60
2019-02-15T09:37:03.101Z,95.90
2019-02-15T09:40:01.630Z,96.70
2019-02-15T09:42:39.207Z,95.70
2019-02-15T09:45:16.702Z,95.50
2019-02-15T09:47:54.251Z,95.60
2019-02-15T09:50:35.452Z,95.30
2019-02-15T09:53:12.987Z,94.60
2019-02-15T09:55:50.496Z,94.60
2019-02-15T09:58:28.027Z,94.70
2019-02-15T10:01:12.243Z,94.20
2019-02-15T10:03:49.902Z,94.00
2019-02-15T10:06:27.625Z,93.60
2019-02-15T10:09:05.667Z,93.90
2019-02-15T10:11:52.903Z,92.90
2019-02-15T10:14:30.573Z,92.60
2019-02-15T10:17:08.429Z,92.10
2019-02-15T10:19:46.050Z,92.00
2019-02-15T10:22:23.599Z,91.90
2019-02-15T10:25:01.124Z,91.50
2019-02-15T10:27:38.658Z,90.50
2019-02-15T10:30:19.415Z,90.10
2019-02-15T10:32:56.952Z,90.00
2019-02-15T10:35:34.503Z,89.60
2019-02-15T10:38:12.049Z,89.90
2019-02-15T10:40:53.212Z,88.70
2019-02-15T10:43:30.773Z,87.80
2019-02-15T10:46:08.307Z,86.80
2019-02-15T10:48:45.928Z,85.00
2019-02-15T10:52:03.853Z,84.10
2019-02-15T10:54:41.449Z,83.20
2019-02-15T10:57:19.026Z,82.10
2019-02-15T11:00:22.355Z,81.60
2019-02-15T11:03:00.040Z,81.20
2019-02-15T11:05:37.551Z,80.40
2019-02-15T11:08:15.131Z,79.70
2019-02-15T11:15:10.774Z,78.00
2019-02-15T11:17:48.361Z,76.50
2019-02-15T11:20:25.985Z,77.20
2019-02-15T11:23:03.564Z,76.60
2019-02-15T11:25:41.157Z,75.40
2019-02-15T11:28:18.861Z,74.30
2019-02-15T11:31:03.215Z,73.80
2019-02-15T11:33:40.835Z,73.20
2019-02-15T11:36:18.469Z,72.10
2019-02-15T11:38:56.076Z,71.70
2019-02-15T11:41:33.795Z,70.50
2019-02-15T11:44:11.409Z,69.70
2019-02-15T11:46:56.508Z,68.70
2019-02-15T11:49:27.717Z,67.70
2019-02-15T11:52:05.285Z,66.90
2019-02-15T11:54:42.933Z,66.20
2019-02-15T11:57:20.654Z,65.10
2019-02-15T12:00:13.607Z,64.50
2019-02-15T12:02:42.350Z,63.80
2019-02-15T12:05:19.990Z,63.40
2019-02-15T12:07:57.586Z,62.50
2019-02-15T12:10:36.276Z,61.10
2019-02-15T12:13:13.924Z,61.00
2019-02-15T12:15:51.597Z,60.20
2019-02-15T12:18:29.310Z,59.90
2019-02-15T12:21:25.634Z,58.90
2019-02-15T12:24:03.343Z,58.40
2019-02-15T12:26:41.041Z,57.20
2019-02-15T12:29:22.202Z,56.80
2019-02-15T12:32:00.428Z,54.30
2019-02-15T12:34:38.167Z,50.10
2019-02-15T12:37:15.963Z,47.10
2019-02-15T12:40:01.547Z,43.70
2019-02-15T12:42:41.087Z,41.70
2019-02-15T12:45:18.745Z,40.10
2019-02-15T12:47:56.433Z,38.50
2019-02-15T12:50:38.216Z,37.70
2019-02-15T12:53:15.766Z,38.30
2019-02-15T12:55:53.270Z,39.40
2019-02-15T12:58:30.907Z,39.60
2019-02-15T13:01:18.128Z,39.70
2019-02-15T13:03:55.648Z,39.30
2019-02-15T13:06:33.145Z,37.70
2019-02-15T13:09:29.378Z,36.50
2019-02-15T13:12:06.885Z,34.80
2019-02-15T13:14:44.414Z,32.70
2019-02-15T13:17:24.691Z,31.40
2019-02-15T13:20:05.882Z,30.20
2019-02-15T13:22:43.366Z,29.50
2019-02-15T13:25:20.939Z,28.50
2019-02-15T13:27:58.376Z,28.00
2019-02-15T13:30:52.755Z,27.70
2019-02-15T13:33:30.295Z,27.40
2019-02-15T13:36:07.816Z,26.80
2019-02-15T13:38:45.390Z,26.50
2019-02-15T13:41:24.700Z,26.10
2019-02-15T13:44:00.427Z,25.40
2019-02-15T13:46:37.935Z,25.00
2019-02-15T13:49:15.583Z,24.80
2019-02-15T13:51:53.100Z,24.70
2019-02-15T13:54:30.633Z,24.40
2019-02-15T13:57:08.160Z,24.10
2019-02-15T13:59:49.045Z,24.30
2019-02-15T14:02:26.595Z,24.50
2019-02-15T14:05:04.222Z,24.80
2019-02-15T14:07:41.764Z,24.70
2019-02-15T14:10:22.658Z,24.50
2019-02-15T14:13:00.305Z,24.10
2019-02-15T14:15:37.940Z,23.50
2019-02-15T14:18:15.459Z,22.70
2019-02-15T14:20:53.046Z,22.30
2019-02-15T14:23:30.578Z,22.00
2019-02-15T14:26:08.116Z,21.50
2019-02-15T14:28:45.773Z,21.90
2019-02-15T14:31:23.353Z,21.30
2019-02-15T14:34:00.995Z,20.90
2019-02-15T14:36:38.563Z,20.90
2019-02-15T14:39:23.465Z,20.70
2019-02-15T14:42:01.031Z,20.60
2019-02-15T14:44:38.669Z,20.20
2019-02-15T14:47:16.219Z,20.20
2019-02-15T14:49:53.857Z,20.20
2019-02-15T14:52:31.397Z,20.40
2019-02-15T14:55:09.042Z,20.30
2019-02-15T14:57:46.671Z,20.30
2019-02-15T15:00:37.320Z,20.40
2019-02-15T15:03:14.921Z,20.20
2019-02-15T15:05:52.567Z,20.40
2019-02-15T15:08:30.813Z,20.50
2019-02-15T15:11:07.860Z,21.10
2019-02-15T15:13:45.478Z,21.40
2019-02-15T15:16:23.154Z,22.00
2019-02-15T15:19:18.607Z,22.10
2019-02-15T15:21:56.199Z,22.10
2019-02-15T15:24:33.923Z,22.00
2019-02-15T15:27:11.627Z,22.00
2019-02-15T15:29:52.631Z,22.00
2019-02-15T15:32:30.290Z,22.00
2019-02-15T15:35:07.976Z,22.30
2019-02-15T15:37:45.586Z,22.70
2019-02-15T15:40:43.610Z,23.00
2019-02-15T15:43:21.221Z,23.30
2019-02-15T15:45:58.880Z,23.80
2019-02-15T15:48:36.611Z,24.10
2019-02-15T15:51:14.240Z,24.40
2019-02-15T15:53:51.886Z,24.80
2019-02-15T15:56:29.516Z,25.20
2019-02-15T15:59:35.734Z,25.60
2019-02-15T16:02:13.442Z,26.00
2019-02-15T16:04:50.994Z,26.50
2019-02-15T16:07:28.525Z,26.90
2019-02-15T16:10:06.842Z,27.50
2019-02-15T16:12:44.444Z,28.00
2019-02-15T16:15:22.059Z,28.60
2019-02-15T16:17:59.698Z,29.50
2019-02-15T16:20:37.823Z,30.30
2019-02-15T16:23:15.441Z,31.70
2019-02-15T16:25:53.130Z,33.40
2019-02-15T16:28:59.293Z,35.20
2019-02-15T16:31:36.917Z,37.00
2019-02-15T16:34:14.484Z,39.20
2019-02-15T16:36:52.007Z,41.00
2019-02-15T16:39:46.645Z,42.90
2019-02-15T16:42:24.151Z,44.60
2019-02-15T16:45:01.729Z,46.30
2019-02-15T16:47:54.893Z,47.90
2019-02-15T16:50:32.741Z,49.40
2019-02-15T16:53:24.393Z,51.10
2019-02-15T16:56:02.018Z,52.40
2019-02-15T16:58:47.333Z,53.70
2019-02-15T17:01:25.003Z,54.70
2019-02-15T17:04:02.823Z,55.80
2019-02-15T17:06:40.647Z,56.80
2019-02-15T17:09:27.601Z,57.50
2019-02-15T17:12:05.260Z,58.20
2019-02-15T17:14:42.884Z,59.00
2019-02-15T17:17:20.636Z,59.50
2019-02-15T17:19:59.371Z,60.00
2019-02-15T17:22:38.948Z,60.50
2019-02-15T17:25:16.517Z,60.90
2019-02-15T17:27:57.241Z,61.40
2019-02-15T17:30:35.446Z,62.00
2019-02-15T17:33:13.147Z,62.30
2019-02-15T17:35:50.778Z,63.00
2019-02-15T17:38:28.405Z,64.00
2019-02-15T17:41:06.130Z,65.40
2019-02-15T17:43:43.789Z,66.90
2019-02-15T17:46:21.457Z,68.10
2019-02-15T17:49:00.957Z,69.30
2019-02-15T17:51:37.068Z,70.00
2019-02-15T17:54:14.624Z,70.90
2019-02-15T17:56:52.193Z,71.80
2019-02-15T17:59:35.194Z,72.50
2019-02-15T18:02:12.923Z,73.50
2019-02-15T18:04:50.462Z,74.30
2019-02-15T18:07:28.029Z,74.90
2019-02-15T18:10:07.639Z,75.60
2019-02-15T18:12:45.264Z,76.10
2019-02-15T18:15:22.828Z,76.90
2019-02-15T18:18:15.843Z,77.90
2019-02-15T18:20:53.377Z,78.70
2019-02-15T18:23:30.904Z,79.50
2019-02-15T18:26:08.435Z,80.00
2019-02-15T18:28:48.031Z,80.90
2019-02-15T18:31:25.671Z,81.60
2019-02-15T18:34:03.256Z,82.20
2019-02-15T18:36:40.834Z,83.10
2019-02-15T18:39:18.579Z,83.30
2019-02-15T18:41:56.297Z,83.00
2019-02-15T18:44:33.964Z,83.10
2019-02-15T18:47:11.540Z,83.20
2019-02-15T18:49:49.280Z,84.50
2019-02-15T18:52:26.917Z,84.40
2019-02-15T18:55:04.659Z,84.80
2019-02-15T18:57:45.758Z,84.50
2019-02-15T19:00:24.659Z,84.60
2019-02-15T19:03:02.615Z,84.90
2019-02-15T19:05:40.320Z,85.40
2019-02-15T19:08:50.578Z,85.70
2019-02-15T19:11:28.301Z,86.20
2019-02-15T19:14:05.963Z,86.70
2019-02-15T19:16:43.600Z,87.00
2019-02-15T19:19:41.010Z,87.70
2019-02-15T19:22:18.677Z,87.90
2019-02-15T19:24:56.347Z,88.30
2019-02-15T19:27:37.627Z,88.60
2019-02-15T19:30:19.110Z,89.10
2019-02-15T19:32:56.777Z,89.40
2019-02-15T19:35:34.384Z,89.50
2019-02-15T19:38:20.021Z,90.00
2019-02-15T19:40:57.602Z,90.10
2019-02-15T19:43:35.238Z,90.30
2019-02-15T19:46:12.977Z,90.30
2019-02-15T19:48:57.123Z,90.70
2019-02-15T19:51:35.955Z,90.90
2019-02-15T19:54:13.692Z,90.90
2019-02-15T19:56:51.254Z,91.00
2019-02-15T19:59:39.150Z,91.30
2019-02-15T20:02:16.852Z,91.60
2019-02-15T20:04:54.410Z,91.70
2019-02-15T20:07:42.727Z,91.80
2019-02-15T20:10:22.241Z,92.00
2019-02-15T20:13:00.846Z,92.20
2019-02-15T20:15:37.504Z,92.50
2019-02-15T20:18:15.251Z,92.60
2019-02-15T20:20:52.798Z,92.80
2019-02-15T20:23:30.404Z,92.90
2019-02-15T20:26:08.004Z,93.00
2019-02-15T20:28:46.656Z,93.10
2019-02-15T20:31:24.258Z,93.40
2019-02-15T20:34:01.949Z,94.00
2019-02-15T20:36:39.475Z,94.40
2019-02-15T20:39:17.502Z,94.40
2019-02-15T20:41:55.062Z,94.60
2019-02-15T20:44:32.803Z,94.70
2019-02-15T20:47:10.430Z,94.90
2019-02-15T20:49:48.031Z,95.20
2019-02-15T20:52:25.625Z,95.40
2019-02-15T20:55:03.221Z,95.70
2019-02-15T20:57:40.907Z,95.50
2019-02-15T21:00:22.383Z,95.40
2019-02-15T21:02:59.916Z,95.40
2019-02-15T21:05:37.433Z,95.60
2019-02-15T21:08:23.330Z,95.60
2019-02-15T21:11:00.860Z,95.60
2019-02-15T21:13:38.391Z,96.00
2019-02-15T21:16:15.892Z,96.60
2019-02-15T21:19:15.844Z,96.90
2019-02-15T21:21:53.479Z,97.20
2019-02-15T21:24:31.079Z,97.60
2019-02-15T21:27:08.686Z,98.10
2019-02-15T21:29:46.633Z,98.60
2019-02-15T21:32:24.135Z,97.90
2019-02-15T21:35:01.683Z,97.00
2019-02-15T21:37:40.269Z,97.00
2019-02-15T21:40:18.440Z,97.20
2019-02-15T21:42:55.983Z,97.60
2019-02-15T21:45:33.496Z,97.90
2019-02-15T21:48:14.585Z,98.30
2019-02-15T21:50:52.096Z,98.40
2019-02-15T21:53:29.608Z,98.70
2019-02-15T21:56:07.126Z,99.00
2019-02-15T21:58:44.744Z,99.30
2019-02-15T22:01:22.275Z,99.40
2019-02-15T22:03:59.808Z,99.50
2019-02-15T22:06:37.344Z,99.80
2019-02-15T22:09:14.866Z,99.90
2019-02-15T22:11:52.361Z,99.90
2019-02-15T22:14:29.902Z,99.90
2019-02-15T22:17:26.114Z,99.90
2019-02-15T22:20:03.661Z,99.90
2019-02-15T22:22:41.163Z,99.90
2019-02-15T22:25:18.673Z,99.90
2019-02-15T22:27:56.326Z,99.90
2019-02-15T22:30:33.840Z,99.90
2019-02-15T22:33:11.341Z,99.90
2019-02-15T22:35:48.854Z,99.90
2019-02-15T22:38:33.550Z,99.90
2019-02-15T22:41:16.280Z,99.90
2019-02-15T22:43:53.792Z,99.90
2019-02-15T22:46:31.289Z,99.90
2019-02-15T22:49:08.853Z,99.90
2019-02-15T22:51:46.363Z,99.90
2019-02-15T22:54:23.907Z,99.90
2019-02-15T22:57:11.099Z,99.90
2019-02-15T22:59:48.623Z,99.90
2019-02-15T23:02:26.109Z,99.90
2019-02-15T23:05:03.647Z,99.90
2019-02-15T23:07:41.286Z,99.90
2019-02-15T23:10:18.825Z,99.90
2019-02-15T23:12:56.333Z,99.90
2019-02-15T23:15:33.886Z,99.90
2019-02-15T23:18:14.630Z,99.90
2019-02-15T23:20:52.152Z,99.90
2019-02-15T23:23:29.652Z,99.90
2019-02-15T23:26:07.180Z,99.90
2019-02-15T23:28:44.810Z,99.90
2019-02-15T23:31:22.331Z,99.90
2019-02-15T23:33:59.920Z,99.90
2019-02-15T23:36:43.520Z,99.90
2019-02-15T23:39:21.067Z,99.90
2019-02-15T23:41:58.598Z,99.90
2019-02-15T23:44:36.137Z,99.90
2019-02-15T23:47:20.456Z,99.90
2019-02-15T23:49:58.008Z,99.90
2019-02-15T23:52:35.501Z,99.90
2019-02-15T23:55:13.052Z,99.90
2019-02-15T23:58:04.043Z,99.90
